Time;durP1;ratioP1;P1;durP2;ratioP2;P2;SDS_P1;SDS_P2;PMS_P1;PMS_P2;Temp;Humidity;BMP_temperature;BMP_pressure;BME280_temperature;BME280_humidity;BME280_pressure;Samples;Min_cycle;Max_cycle;Signal;HPM_P1;HPM_P2
2022/02/15 00:01:20;;;;;;;4.60;2.25;;;6.40;99.90;;;;;;490851;241;29286;-74
2022/02/15 00:03:21;;;;;;;2.25;2.15;;;6.40;99.90;;;;;;490837;241;27999;-74
2022/02/15 00:05:23;;;;;;;3.20;2.28;;;6.40;99.90;;;;;;490842;241;27485;-72
2022/02/15 00:07:24;;;;;;;2.40;2.20;;;6.30;99.90;;;;;;490856;241;27478;-71
2022/02/15 00:09:25;;;;;;;3.07;2.10;;;6.30;99.90;;;;;;490806;241;27376;-73
2022/02/15 00:11:26;;;;;;;2.33;2.22;;;6.30;99.90;;;;;;490862;241;28777;-71
2022/02/15 00:13:28;;;;;;;2.60;2.40;;;6.30;99.90;;;;;;490847;241;27432;-72
2022/02/15 00:15:29;;;;;;;3.95;2.53;;;6.30;99.90;;;;;;490827;241;27621;-74
2022/02/15 00:17:30;;;;;;;2.00;1.80;;;6.30;99.90;;;;;;490827;241;27917;-72
2022/02/15 00:19:31;;;;;;;2.67;2.45;;;6.30;99.90;;;;;;490825;241;27925;-74
2022/02/15 00:21:33;;;;;;;3.20;2.42;;;6.30;99.90;;;;;;490853;241;27471;-74
2022/02/15 00:23:34;;;;;;;2.47;2.28;;;6.30;99.90;;;;;;490858;241;27420;-72
2022/02/15 00:25:35;;;;;;;2.10;2.00;;;6.20;99.90;;;;;;490838;241;27430;-72
2022/02/15 00:27:37;;;;;;;3.83;2.25;;;6.30;99.90;;;;;;490710;241;27411;-73
2022/02/15 00:29:38;;;;;;;2.10;2.00;;;6.30;99.90;;;;;;490790;241;28422;-74
2022/02/15 00:31:39;;;;;;;3.30;2.10;;;6.30;99.90;;;;;;490844;241;28317;-74
2022/02/15 00:33:40;;;;;;;2.47;2.28;;;6.30;99.90;;;;;;490832;241;29342;-74
2022/02/15 00:35:41;;;;;;;2.00;1.90;;;6.30;99.90;;;;;;490837;241;27364;-73
2022/02/15 00:37:43;;;;;;;2.50;2.00;;;6.30;99.90;;;;;;490805;241;27411;-73
2022/02/15 00:39:44;;;;;;;2.47;2.15;;;6.20;99.90;;;;;;490837;241;27891;-71
2022/02/15 00:41:45;;;;;;;2.65;2.45;;;6.20;99.90;;;;;;490813;242;27450;-72
2022/02/15 00:43:46;;;;;;;2.78;2.15;;;6.20;99.90;;;;;;490851;241;27540;-71
2022/02/15 00:45:48;;;;;;;2.00;1.90;;;6.20;99.90;;;;;;490758;241;27944;-71
2022/02/15 00:47:49;;;;;;;2.30;2.20;;;6.20;99.90;;;;;;490741;241;27998;-74
2022/02/15 00:49:50;;;;;;;2.08;1.90;;;6.20;99.90;;;;;;490838;241;27521;-71
2022/02/15 00:51:51;;;;;;;2.20;2.10;;;6.20;99.90;;;;;;490798;241;27383;-72
2022/02/15 00:53:53;;;;;;;2.28;1.90;;;6.20;99.90;;;;;;490615;241;27486;-74
2022/02/15 00:55:54;;;;;;;2.20;1.70;;;6.20;99.90;;;;;;490821;241;27502;-72
2022/02/15 00:57:55;;;;;;;2.08;1.98;;;6.20;99.90;;;;;;490807;241;28697;-74
2022/02/15 00:59:57;;;;;;;1.70;1.60;;;6.20;99.90;;;;;;490847;241;28009;-73
2022/02/15 01:01:58;;;;;;;1.70;1.60;;;6.20;99.90;;;;;;490822;241;27838;-71
2022/02/15 01:03:59;;;;;;;2.55;2.33;;;6.20;99.90;;;;;;490796;241;27485;-74
2022/02/15 01:06:00;;;;;;;2.50;2.00;;;6.30;99.90;;;;;;490807;242;27415;-72
2022/02/15 01:08:02;;;;;;;2.00;1.90;;;6.30;99.90;;;;;;490855;241;27443;-72
2022/02/15 01:10:03;;;;;;;2.33;2.22;;;6.20;99.90;;;;;;490974;241;27426;-75
2022/02/15 01:12:04;;;;;;;2.00;1.90;;;6.30;99.90;;;;;;490975;242;28002;-75
2022/02/15 01:14:05;;;;;;;2.58;2.08;;;6.30;99.90;;;;;;490824;241;27906;-72
2022/02/15 01:16:08;;;;;;;2.83;2.50;;;6.20;99.90;;;;;;490822;241;27400;-73
2022/02/15 01:18:08;;;;;;;2.62;2.42;;;6.30;99.90;;;;;;490890;241;27363;-74
2022/02/15 01:20:09;;;;;;;2.53;2.00;;;6.30;99.90;;;;;;490910;241;27490;-74
2022/02/15 01:22:10;;;;;;;2.45;2.25;;;6.20;99.90;;;;;;490812;241;27410;-73
2022/02/15 01:24:12;;;;;;;2.25;2.00;;;6.30;99.90;;;;;;490799;241;27494;-73
2022/02/15 01:26:13;;;;;;;3.45;2.08;;;6.20;99.90;;;;;;490865;241;27897;-72
2022/02/15 01:28:14;;;;;;;2.93;2.67;;;6.20;99.90;;;;;;490806;241;27372;-71
2022/02/15 01:30:16;;;;;;;2.62;2.40;;;6.20;99.90;;;;;;490757;241;28208;-73
2022/02/15 01:32:17;;;;;;;2.40;2.30;;;6.20;99.90;;;;;;490729;241;28607;-74
2022/02/15 01:34:18;;;;;;;2.87;2.37;;;6.20;99.90;;;;;;490853;241;27961;-71
2022/02/15 01:36:19;;;;;;;4.85;2.42;;;6.20;99.90;;;;;;490854;241;27443;-71
2022/02/15 01:38:21;;;;;;;3.65;2.12;;;6.30;99.90;;;;;;490806;241;27422;-72
2022/02/15 01:40:22;;;;;;;2.95;2.30;;;6.30;99.90;;;;;;490806;241;27415;-72
2022/02/15 01:42:23;;;;;;;2.10;2.00;;;6.30;99.90;;;;;;490823;241;27740;-72
2022/02/15 01:44:24;;;;;;;2.60;2.25;;;6.20;99.90;;;;;;490815;241;28789;-72
2022/02/15 01:46:26;;;;;;;3.50;2.83;;;6.20;99.90;;;;;;490811;241;27922;-73
2022/02/15 01:48:27;;;;;;;2.53;2.42;;;6.20;99.90;;;;;;490832;241;27380;-73
2022/02/15 01:50:28;;;;;;;2.20;2.10;;;6.20;99.90;;;;;;490812;241;27399;-72
2022/02/15 01:52:29;;;;;;;2.25;2.15;;;6.20;99.90;;;;;;490844;241;27419;-72
2022/02/15 01:54:31;;;;;;;2.37;2.20;;;6.20;99.90;;;;;;490804;242;27408;-72
2022/02/15 01:56:32;;;;;;;2.28;2.10;;;6.20;99.90;;;;;;490815;241;27408;-72
2022/02/15 01:58:33;;;;;;;2.23;2.10;;;6.20;99.90;;;;;;490795;241;27842;-72
2022/02/15 02:00:34;;;;;;;2.78;2.58;;;6.20;99.90;;;;;;490813;241;29033;-72
2022/02/15 02:02:36;;;;;;;2.20;2.00;;;6.20;99.90;;;;;;490835;241;29366;-72
2022/02/15 02:06:56;;;;;;;2.60;2.50;;;6.20;99.90;;;;;;490840;242;27403;-72
2022/02/15 02:08:58;;;;;;;2.50;2.30;;;6.20;99.90;;;;;;490790;241;27461;-73
2022/02/15 02:11:00;;;;;;;2.85;2.55;;;6.20;99.90;;;;;;490829;241;27501;-72
2022/02/15 02:13:00;;;;;;;2.87;2.67;;;6.20;99.90;;;;;;490718;242;27854;-74
2022/02/15 02:15:01;;;;;;;6.20;2.92;;;6.20;99.90;;;;;;490779;241;29258;-72
2022/02/15 02:17:03;;;;;;;2.90;2.70;;;6.20;99.90;;;;;;490773;241;27529;-73
2022/02/15 02:19:04;;;;;;;2.70;2.50;;;6.20;99.90;;;;;;490812;241;28719;-73
2022/02/15 02:21:05;;;;;;;2.43;2.33;;;6.20;99.90;;;;;;490858;241;27399;-72
2022/02/15 02:23:06;;;;;;;2.67;2.50;;;6.20;99.90;;;;;;490783;241;28739;-73
2022/02/15 02:25:08;;;;;;;2.90;2.70;;;6.20;99.90;;;;;;490830;242;27356;-74
2022/02/15 02:27:15;;;;;;;3.10;2.80;;;6.20;99.90;;;;;;490855;241;27486;-72
2022/02/15 02:29:10;;;;;;;3.50;3.20;;;6.20;99.90;;;;;;490249;242;29192;-72
2022/02/15 02:31:11;;;;;;;5.43;2.90;;;6.20;99.90;;;;;;490622;241;27918;-71
2022/02/15 02:33:13;;;;;;;3.40;2.70;;;6.20;99.90;;;;;;490592;241;28765;-74
2022/02/15 02:35:14;;;;;;;2.65;2.45;;;6.20;99.90;;;;;;490837;241;27537;-71
2022/02/15 02:37:15;;;;;;;2.80;2.60;;;6.20;99.90;;;;;;490809;241;27514;-73
2022/02/15 02:39:16;;;;;;;3.35;3.05;;;6.20;99.90;;;;;;490833;241;27745;-72
2022/02/15 02:41:18;;;;;;;3.08;2.87;;;6.20;99.90;;;;;;490836;241;27371;-71
2022/02/15 02:43:19;;;;;;;3.33;2.80;;;6.20;99.90;;;;;;490828;241;27887;-72
2022/02/15 02:45:21;;;;;;;3.25;2.80;;;6.20;99.90;;;;;;490805;241;29227;-72
2022/02/15 02:47:22;;;;;;;4.60;3.37;;;6.20;99.90;;;;;;490811;242;27432;-72
2022/02/15 02:49:23;;;;;;;3.45;3.15;;;6.20;99.90;;;;;;490824;242;27404;-71
2022/02/15 02:51:24;;;;;;;2.97;2.75;;;6.10;99.90;;;;;;490843;241;27378;-72
2022/02/15 02:53:25;;;;;;;2.75;2.55;;;6.20;99.90;;;;;;490871;241;27499;-72
2022/02/15 02:55:27;;;;;;;5.50;3.03;;;6.20;99.90;;;;;;490837;242;27364;-72
2022/02/15 02:57:28;;;;;;;3.20;3.00;;;6.20;99.90;;;;;;490801;241;27896;-72
2022/02/15 02:59:29;;;;;;;3.27;2.97;;;6.20;99.90;;;;;;490790;241;27868;-73
2022/02/15 03:01:30;;;;;;;5.32;3.22;;;6.20;99.90;;;;;;490840;241;29252;-74
2022/02/15 03:03:32;;;;;;;2.95;2.62;;;6.20;99.90;;;;;;490835;241;27499;-72
2022/02/15 03:05:33;;;;;;;3.25;2.87;;;6.20;99.90;;;;;;490813;241;27359;-72
2022/02/15 03:07:34;;;;;;;2.87;2.60;;;6.20;99.90;;;;;;490808;241;27406;-71
2022/02/15 03:09:35;;;;;;;3.17;2.70;;;6.20;99.90;;;;;;490818;241;27429;-74
2022/02/15 03:11:37;;;;;;;3.45;2.90;;;6.20;99.90;;;;;;490753;241;27422;-71
2022/02/15 03:13:38;;;;;;;2.95;2.75;;;6.20;99.90;;;;;;490822;241;27505;-71
2022/02/15 03:15:40;;;;;;;2.50;2.30;;;6.20;99.90;;;;;;490820;242;27367;-72
2022/02/15 03:17:40;;;;;;;3.00;2.70;;;6.20;99.90;;;;;;490784;241;27372;-71
2022/02/15 03:19:42;;;;;;;4.07;3.67;;;6.20;99.90;;;;;;490805;241;27920;-71
2022/02/15 03:21:43;;;;;;;3.40;3.10;;;6.20;99.90;;;;;;490818;241;27941;-73
2022/02/15 03:23:44;;;;;;;3.25;2.95;;;6.20;99.90;;;;;;490859;241;27513;-71
2022/02/15 03:25:45;;;;;;;2.87;2.67;;;6.20;99.90;;;;;;490846;241;27363;-72
2022/02/15 03:27:47;;;;;;;7.25;3.10;;;6.20;99.90;;;;;;490844;241;27458;-73
2022/02/15 03:29:48;;;;;;;4.57;3.00;;;6.20;99.90;;;;;;490860;241;27487;-73
2022/02/15 03:31:49;;;;;;;3.00;2.70;;;6.20;99.90;;;;;;490812;241;27915;-74
2022/02/15 03:33:51;;;;;;;3.12;2.92;;;6.20;99.90;;;;;;490805;241;27962;-73
2022/02/15 03:35:52;;;;;;;2.70;2.50;;;6.20;99.90;;;;;;490829;241;27827;-72
2022/02/15 03:37:53;;;;;;;3.00;2.80;;;6.20;99.90;;;;;;490826;241;27435;-71
2022/02/15 03:39:54;;;;;;;4.75;2.97;;;6.20;99.90;;;;;;490861;241;27412;-71
2022/02/15 03:44:15;;;;;;;3.85;3.55;;;6.20;99.90;;;;;;490790;242;27966;-72
2022/02/15 03:46:16;;;;;;;4.05;3.45;;;6.20;99.90;;;;;;490845;241;27434;-72
2022/02/15 03:48:18;;;;;;;3.97;3.47;;;6.30;99.90;;;;;;490804;241;27379;-74
2022/02/15 03:50:19;;;;;;;4.40;4.00;;;6.30;99.90;;;;;;490829;241;28823;-74
2022/02/15 03:52:20;;;;;;;4.10;3.70;;;6.30;99.90;;;;;;490861;241;27747;-72
2022/02/15 03:54:21;;;;;;;3.28;3.00;;;6.20;99.90;;;;;;490819;241;28838;-74
2022/02/15 03:56:23;;;;;;;4.90;3.30;;;6.20;99.90;;;;;;490825;241;27885;-71
2022/02/15 03:58:24;;;;;;;3.40;3.10;;;6.20;99.90;;;;;;490801;242;28474;-71
2022/02/15 04:00:25;;;;;;;3.62;3.15;;;6.20;99.90;;;;;;490801;241;27871;-74
2022/02/15 04:02:26;;;;;;;2.90;2.70;;;6.20;99.90;;;;;;490835;241;27506;-71
2022/02/15 04:04:28;;;;;;;3.40;3.10;;;6.20;99.90;;;;;;490826;241;27364;-71
2022/02/15 04:06:29;;;;;;;3.28;2.97;;;6.20;99.90;;;;;;490821;241;27404;-73
2022/02/15 04:08:30;;;;;;;3.00;2.70;;;6.20;99.90;;;;;;490828;241;27387;-73
2022/02/15 04:10:31;;;;;;;3.80;3.50;;;6.20;99.90;;;;;;490793;241;27489;-73
2022/02/15 04:12:33;;;;;;;3.03;2.83;;;6.10;99.90;;;;;;490843;241;27973;-72
2022/02/15 04:14:34;;;;;;;3.28;3.08;;;6.20;99.90;;;;;;490830;241;27828;-71
2022/02/15 04:16:37;;;;;;;3.42;3.12;;;6.20;99.90;;;;;;490850;241;27502;-72
2022/02/15 04:18:43;;;;;;;3.20;3.00;;;6.20;99.90;;;;;;490679;242;27372;-73
2022/02/15 04:20:38;;;;;;;3.70;3.40;;;6.20;99.90;;;;;;490168;242;27518;-74
2022/02/15 04:22:39;;;;;;;3.87;3.58;;;6.10;99.90;;;;;;490823;241;27528;-71
2022/02/15 04:24:40;;;;;;;3.87;3.40;;;6.10;99.90;;;;;;490824;241;27862;-72
2022/02/15 04:26:42;;;;;;;3.08;2.87;;;6.20;99.90;;;;;;490788;242;28023;-74
2022/02/15 04:28:43;;;;;;;3.80;3.40;;;6.10;99.90;;;;;;490850;241;27375;-71
2022/02/15 04:30:44;;;;;;;3.30;3.00;;;6.20;99.90;;;;;;490785;241;27447;-73
2022/02/15 04:32:45;;;;;;;3.28;3.05;;;6.10;99.90;;;;;;490849;241;27474;-73
2022/02/15 04:34:47;;;;;;;2.90;2.70;;;6.20;99.90;;;;;;490842;241;27446;-74
2022/02/15 04:36:48;;;;;;;3.78;3.17;;;6.20;99.90;;;;;;490858;241;27404;-74
2022/02/15 04:38:49;;;;;;;4.00;3.60;;;6.10;99.90;;;;;;490840;241;28696;-74
2022/02/15 04:40:50;;;;;;;4.45;3.90;;;6.10;99.90;;;;;;490819;241;27876;-73
2022/02/15 04:42:52;;;;;;;3.72;3.40;;;6.10;99.90;;;;;;490814;241;27407;-74
2022/02/15 04:44:53;;;;;;;4.20;3.80;;;6.10;99.90;;;;;;490861;241;27450;-73
2022/02/15 04:46:54;;;;;;;4.72;4.12;;;6.10;99.90;;;;;;490817;241;27490;-73
2022/02/15 04:48:55;;;;;;;4.20;3.77;;;6.10;99.90;;;;;;490863;241;27465;-73
2022/02/15 04:50:57;;;;;;;3.87;3.08;;;6.20;99.90;;;;;;490856;241;28882;-73
2022/02/15 04:52:58;;;;;;;4.10;3.70;;;6.10;99.90;;;;;;490870;241;27894;-74
2022/02/15 04:54:59;;;;;;;5.10;4.15;;;6.10;99.90;;;;;;490855;241;27990;-74
2022/02/15 04:57:01;;;;;;;4.95;4.37;;;6.10;99.90;;;;;;490806;241;27415;-73
2022/02/15 04:59:02;;;;;;;4.82;4.35;;;6.10;99.90;;;;;;490838;241;27439;-73
2022/02/15 05:01:03;;;;;;;4.80;4.30;;;6.00;99.90;;;;;;490811;241;27371;-74
2022/02/15 05:03:04;;;;;;;5.18;4.22;;;6.10;99.90;;;;;;490837;241;27525;-72
2022/02/15 05:05:05;;;;;;;5.78;4.00;;;6.10;99.90;;;;;;490845;241;27376;-74
2022/02/15 05:07:07;;;;;;;3.75;3.45;;;6.10;99.90;;;;;;490797;241;27991;-74
2022/02/15 05:09:08;;;;;;;4.40;4.00;;;6.10;99.90;;;;;;490806;241;27963;-73
2022/02/15 05:11:09;;;;;;;4.12;3.72;;;6.10;99.90;;;;;;490787;241;27411;-73
2022/02/15 05:13:11;;;;;;;3.58;3.30;;;6.00;99.90;;;;;;490852;241;27486;-73
2022/02/15 05:15:12;;;;;;;4.25;3.85;;;6.00;99.90;;;;;;490817;241;27410;-73
2022/02/15 05:17:13;;;;;;;4.75;4.15;;;6.10;99.90;;;;;;490797;241;27498;-73
2022/02/15 05:19:14;;;;;;;4.90;4.40;;;6.00;99.90;;;;;;490839;241;27407;-73
2022/02/15 05:21:16;;;;;;;4.10;3.70;;;6.00;99.90;;;;;;490833;241;27842;-73
2022/02/15 05:23:17;;;;;;;5.00;4.50;;;6.00;99.90;;;;;;490818;241;27988;-74
2022/02/15 05:25:18;;;;;;;4.05;3.75;;;6.10;99.90;;;;;;490822;241;27415;-74
2022/02/15 05:27:19;;;;;;;5.30;4.80;;;6.00;99.90;;;;;;490817;241;27464;-74
2022/02/15 05:29:21;;;;;;;5.95;3.90;;;6.00;99.90;;;;;;490810;241;27404;-74
2022/02/15 05:31:22;;;;;;;4.20;3.80;;;6.00;99.90;;;;;;490820;241;27411;-77
2022/02/15 05:33:23;;;;;;;4.70;4.30;;;6.10;99.90;;;;;;490800;241;27414;-74
2022/02/15 05:35:24;;;;;;;4.10;3.80;;;6.00;99.90;;;;;;490825;241;27891;-73
2022/02/15 05:37:26;;;;;;;3.90;3.60;;;6.00;99.90;;;;;;490819;241;28032;-74
2022/02/15 05:39:27;;;;;;;3.85;3.55;;;6.00;99.90;;;;;;490840;241;27501;-74
2022/02/15 05:41:28;;;;;;;4.10;3.70;;;6.00;99.90;;;;;;490802;241;27375;-74
2022/02/15 05:43:29;;;;;;;4.40;4.00;;;6.00;99.90;;;;;;490820;241;27420;-73
2022/02/15 05:45:31;;;;;;;6.53;4.15;;;6.00;99.90;;;;;;490809;241;27367;-73
2022/02/15 05:47:32;;;;;;;4.67;4.27;;;6.00;99.90;;;;;;490773;241;27419;-73
2022/02/15 05:50:49;;;;;;;4.78;4.30;;;6.00;99.90;;;;;;490838;241;28834;-73
2022/02/15 05:51:34;;;;;;;6.68;4.72;;;6.00;99.90;;;;;;489178;242;27840;-74
2022/02/15 05:53:36;;;;;;;6.18;4.22;;;6.00;99.90;;;;;;490778;241;27447;-73
2022/02/15 05:55:37;;;;;;;4.40;4.00;;;6.00;99.90;;;;;;490799;241;27488;-73
2022/02/15 05:57:38;;;;;;;4.97;4.47;;;6.00;99.90;;;;;;490866;241;27451;-74
2022/02/15 05:59:39;;;;;;;5.30;4.25;;;6.00;99.90;;;;;;490843;241;27418;-73
2022/02/15 06:01:43;;;;;;;4.60;4.15;;;6.00;99.90;;;;;;490901;241;27376;-74
2022/02/15 06:06:02;;;;;;;4.40;4.00;;;6.00;99.90;;;;;;490862;242;27475;-73
2022/02/15 06:08:03;;;;;;;4.65;4.25;;;6.00;99.90;;;;;;490817;241;27398;-74
2022/02/15 06:10:04;;;;;;;4.20;3.90;;;5.90;99.90;;;;;;490825;241;27419;-74
2022/02/15 06:12:05;;;;;;;4.90;4.40;;;5.90;99.90;;;;;;490866;241;27827;-74
2022/02/15 06:14:07;;;;;;;6.25;4.60;;;5.90;99.90;;;;;;490794;241;28693;-74
2022/02/15 06:16:08;;;;;;;4.65;4.25;;;5.80;99.90;;;;;;490865;241;27967;-73
2022/02/15 06:18:09;;;;;;;4.82;4.43;;;5.80;99.90;;;;;;490851;241;27367;-74
2022/02/15 06:20:10;;;;;;;4.97;4.57;;;5.80;99.90;;;;;;490825;241;27490;-73
2022/02/15 06:22:12;;;;;;;5.10;4.70;;;5.80;99.90;;;;;;490867;241;27372;-74
2022/02/15 06:24:13;;;;;;;4.80;4.30;;;5.70;99.90;;;;;;490825;241;27411;-74
2022/02/15 06:26:14;;;;;;;6.10;5.00;;;5.70;99.90;;;;;;490858;241;27418;-74
2022/02/15 06:28:15;;;;;;;6.15;5.55;;;5.70;99.90;;;;;;490841;242;27367;-74
2022/02/15 06:30:17;;;;;;;6.10;5.50;;;5.70;99.90;;;;;;490833;241;27888;-73
2022/02/15 06:32:18;;;;;;;6.25;5.65;;;5.70;99.90;;;;;;490849;241;27361;-73
2022/02/15 06:34:19;;;;;;;5.90;5.12;;;5.70;99.90;;;;;;490870;241;27379;-74
2022/02/15 06:36:20;;;;;;;6.15;5.43;;;5.70;99.90;;;;;;490866;241;27400;-73
2022/02/15 06:38:22;;;;;;;6.80;6.10;;;5.60;99.90;;;;;;490870;241;27363;-73
2022/02/15 06:40:23;;;;;;;7.15;5.32;;;5.60;99.90;;;;;;490760;242;27501;-73
2022/02/15 06:42:24;;;;;;;6.57;5.85;;;5.60;99.90;;;;;;490850;241;27472;-73
2022/02/15 06:44:25;;;;;;;7.07;5.53;;;5.60;99.90;;;;;;490831;242;27854;-73
2022/02/15 06:46:27;;;;;;;6.15;5.55;;;5.60;99.90;;;;;;490835;241;27426;-74
2022/02/15 06:48:28;;;;;;;7.25;5.28;;;5.60;99.90;;;;;;490835;241;27452;-73
2022/02/15 06:50:29;;;;;;;5.50;5.00;;;5.60;99.90;;;;;;490824;241;27418;-74
2022/02/15 06:52:30;;;;;;;6.50;5.90;;;5.60;99.90;;;;;;490881;241;27447;-77
2022/02/15 06:54:32;;;;;;;5.85;5.35;;;5.60;99.90;;;;;;490943;241;27434;-78
2022/02/15 06:58:46;;;;;;;6.00;4.90;;;5.60;99.90;;;;;;490950;241;27431;-76
2022/02/15 07:02:58;;;;;;;6.47;5.87;;;5.60;99.90;;;;;;490972;241;27357;-75
2022/02/15 07:05:00;;;;;;;6.72;5.55;;;5.60;99.90;;;;;;490926;241;27573;-77
2022/02/15 07:07:03;;;;;;;9.02;5.90;;;5.50;99.90;;;;;;491003;241;27372;-78
2022/02/15 07:09:04;;;;;;;6.15;5.20;;;5.50;99.90;;;;;;491107;241;27447;-76
2022/02/15 07:11:11;;;;;;;7.25;5.70;;;5.50;99.90;;;;;;494012;241;27927;-79
2022/02/15 07:13:12;;;;;;;8.65;6.60;;;5.50;99.90;;;;;;494087;241;27522;-77
2022/02/15 07:15:14;;;;;;;7.10;5.20;;;5.50;99.90;;;;;;494150;241;27951;-77
2022/02/15 07:17:15;;;;;;;7.90;6.12;;;5.50;99.90;;;;;;494124;241;27976;-77
2022/02/15 07:19:16;;;;;;;6.10;5.50;;;5.50;99.90;;;;;;494136;241;28039;-75
2022/02/15 07:21:24;;;;;;;10.80;6.40;;;5.50;99.90;;;;;;494115;241;27990;-75
2022/02/15 07:23:25;;;;;;;5.90;5.32;;;5.60;99.90;;;;;;494175;241;27998;-76
2022/02/15 07:25:26;;;;;;;7.25;5.82;;;5.50;99.90;;;;;;494085;241;27477;-76
2022/02/15 07:27:29;;;;;;;7.00;6.30;;;5.60;99.90;;;;;;494109;241;27980;-76
2022/02/15 07:31:36;;;;;;;5.70;5.20;;;5.60;99.90;;;;;;494084;241;27493;-76
2022/02/15 07:33:37;;;;;;;5.85;5.25;;;5.60;99.90;;;;;;494072;241;28748;-76
2022/02/15 07:35:39;;;;;;;10.38;6.20;;;5.60;99.90;;;;;;494113;241;27935;-76
2022/02/15 07:37:40;;;;;;;7.10;5.95;;;5.60;99.90;;;;;;494098;241;27577;-75
2022/02/15 07:41:49;;;;;;;5.68;5.05;;;5.60;99.90;;;;;;494108;241;27585;-77
2022/02/15 07:43:51;;;;;;;6.28;5.68;;;5.60;99.90;;;;;;494016;241;27985;-76
2022/02/15 07:45:52;;;;;;;5.70;5.22;;;5.70;99.90;;;;;;494140;241;28773;-77
2022/02/15 07:47:53;;;;;;;4.93;4.43;;;5.70;99.90;;;;;;494136;241;28008;-77
2022/02/15 07:50:02;;;;;;;4.70;4.20;;;5.70;99.90;;;;;;494151;241;27534;-80
2022/02/15 07:52:04;;;;;;;4.57;4.18;;;5.60;99.90;;;;;;494072;241;27924;-76
2022/02/15 07:54:07;;;;;;;7.18;4.40;;;5.50;99.90;;;;;;494131;241;28117;-75
2022/02/15 07:56:07;;;;;;;4.28;3.97;;;5.60;99.90;;;;;;494068;241;27499;-76
2022/02/15 08:00:20;;;;;;;4.93;3.90;;;5.70;99.90;;;;;;494114;241;28806;-75
2022/02/15 08:02:19;;;;;;;4.78;3.95;;;5.80;99.90;;;;;;493750;241;28005;-76
2022/02/15 08:04:20;;;;;;;4.35;3.95;;;5.90;99.90;;;;;;494074;241;27595;-76
2022/02/15 08:06:20;;;;;;;4.50;4.10;;;5.90;99.90;;;;;;494036;241;27912;-78
2022/02/15 08:08:23;;;;;;;5.10;4.40;;;5.80;99.90;;;;;;494118;241;28124;-78
2022/02/15 08:10:24;;;;;;;4.43;4.03;;;5.80;99.90;;;;;;494140;241;27492;-76
2022/02/15 08:12:27;;;;;;;7.82;4.15;;;5.80;99.90;;;;;;494172;241;27920;-76
2022/02/15 08:14:29;;;;;;;5.00;4.40;;;5.90;99.90;;;;;;494127;241;27472;-76
2022/02/15 08:16:36;;;;;;;4.15;3.80;;;5.80;99.90;;;;;;494155;241;29386;-76
2022/02/15 08:18:41;;;;;;;4.85;4.45;;;5.90;99.90;;;;;;494179;241;27513;-77
2022/02/15 08:20:39;;;;;;;5.50;4.30;;;6.00;99.90;;;;;;493881;241;27944;-76
2022/02/15 08:22:40;;;;;;;5.80;4.78;;;6.00;99.90;;;;;;494107;241;28017;-76
2022/02/15 08:24:42;;;;;;;6.03;4.20;;;5.90;99.90;;;;;;494431;241;27506;-77
2022/02/15 08:26:44;;;;;;;7.85;4.30;;;5.90;99.90;;;;;;494074;241;27534;-76
2022/02/15 08:28:44;;;;;;;4.10;3.70;;;5.90;99.90;;;;;;494231;241;27481;-78
2022/02/15 08:30:46;;;;;;;5.90;3.92;;;6.00;99.90;;;;;;494266;241;28034;-78
2022/02/15 08:32:47;;;;;;;4.82;3.90;;;6.00;99.90;;;;;;494104;241;27502;-76
2022/02/15 08:34:49;;;;;;;5.47;4.07;;;5.90;99.90;;;;;;494116;241;27925;-75
2022/02/15 08:36:56;;;;;;;4.32;3.92;;;5.90;99.90;;;;;;494081;241;27940;-76
2022/02/15 08:38:57;;;;;;;3.90;3.60;;;5.90;99.90;;;;;;494097;241;28038;-75
2022/02/15 08:40:59;;;;;;;4.40;4.00;;;6.00;99.90;;;;;;494128;241;27937;-74
2022/02/15 08:43:01;;;;;;;4.47;3.77;;;6.10;99.90;;;;;;494456;241;27558;-78
2022/02/15 08:45:02;;;;;;;5.90;3.83;;;6.00;99.90;;;;;;494130;241;28529;-77
2022/02/15 08:47:06;;;;;;;4.70;3.70;;;6.00;99.90;;;;;;494316;241;27830;-78
2022/02/15 08:49:07;;;;;;;5.00;3.50;;;6.10;99.90;;;;;;493996;241;27714;-75
2022/02/15 08:51:08;;;;;;;5.23;3.60;;;6.20;99.90;;;;;;493758;241;29304;-74
2022/02/15 08:53:09;;;;;;;3.95;3.47;;;6.20;99.90;;;;;;494071;241;29280;-74
2022/02/15 08:55:13;;;;;;;4.10;3.70;;;6.20;99.90;;;;;;494202;241;27926;-78
2022/02/15 08:57:14;;;;;;;4.03;3.63;;;6.20;99.90;;;;;;494121;241;28106;-74
2022/02/15 08:59:15;;;;;;;5.40;4.17;;;6.20;99.90;;;;;;494075;241;28482;-74
2022/02/15 09:01:17;;;;;;;4.78;3.60;;;6.20;99.90;;;;;;494078;241;29383;-74
2022/02/15 09:03:25;;;;;;;4.17;3.37;;;6.20;99.90;;;;;;494128;241;27627;-80
2022/02/15 09:05:27;;;;;;;6.27;3.70;;;6.30;99.90;;;;;;494084;241;28877;-75
2022/02/15 09:09:53;;;;;;;4.62;4.12;;;6.00;99.90;;;;;;494093;241;28961;-74
2022/02/15 09:11:54;;;;;;;4.80;4.27;;;6.10;99.90;;;;;;494030;241;27584;-75
2022/02/15 09:13:55;;;;;;;5.85;4.20;;;6.00;99.90;;;;;;494021;241;27948;-74
2022/02/15 09:15:58;;;;;;;5.30;4.45;;;6.00;99.90;;;;;;485361;241;27553;-78
2022/02/15 09:17:59;;;;;;;7.03;3.87;;;5.90;99.90;;;;;;485476;245;27413;-75
2022/02/15 09:20:00;;;;;;;4.23;3.80;;;5.90;99.90;;;;;;485376;245;29269;-74
2022/02/15 09:22:03;;;;;;;3.90;3.60;;;6.00;99.90;;;;;;485364;245;28777;-75
2022/02/15 09:24:04;;;;;;;4.40;3.90;;;6.20;99.90;;;;;;491645;241;27847;-74
2022/02/15 09:26:04;;;;;;;4.37;3.97;;;6.20;99.90;;;;;;493580;241;28875;-77
2022/02/15 09:28:06;;;;;;;4.25;3.85;;;6.30;99.90;;;;;;493933;241;27461;-74
2022/02/15 09:30:07;;;;;;;4.43;4.03;;;6.30;99.90;;;;;;494027;241;27611;-74
2022/02/15 09:32:08;;;;;;;4.70;4.10;;;6.40;99.90;;;;;;494047;241;28071;-77
2022/02/15 09:34:10;;;;;;;5.37;4.10;;;6.40;99.90;;;;;;494040;241;27602;-72
2022/02/15 09:36:11;;;;;;;5.43;4.30;;;6.40;99.90;;;;;;494036;241;27607;-74
2022/02/15 09:38:12;;;;;;;4.97;4.30;;;6.30;99.90;;;;;;494044;241;27904;-75
2022/02/15 09:40:13;;;;;;;6.78;4.50;;;6.30;99.90;;;;;;493971;241;28072;-77
2022/02/15 09:42:15;;;;;;;4.20;3.80;;;6.30;99.90;;;;;;494032;241;27531;-78
2022/02/15 09:44:16;;;;;;;5.37;4.07;;;6.40;99.90;;;;;;494065;241;27944;-76
2022/02/15 09:46:17;;;;;;;4.67;4.20;;;6.40;99.90;;;;;;494047;241;27633;-73
2022/02/15 09:48:24;;;;;;;5.10;4.60;;;6.40;99.90;;;;;;494042;241;27781;-74
2022/02/15 09:50:20;;;;;;;4.90;3.97;;;6.30;99.90;;;;;;493542;241;28387;-74
2022/02/15 09:52:23;;;;;;;4.60;4.20;;;6.30;99.90;;;;;;493968;241;27981;-74
2022/02/15 09:54:22;;;;;;;6.03;4.37;;;6.30;99.90;;;;;;493580;241;28551;-77
2022/02/15 09:56:23;;;;;;;5.60;5.03;;;6.20;99.90;;;;;;494022;241;28446;-76
2022/02/15 09:58:25;;;;;;;4.77;4.20;;;6.20;99.90;;;;;;494052;241;28637;-74
2022/02/15 10:00:26;;;;;;;4.67;4.27;;;6.30;99.90;;;;;;493988;241;28467;-74
2022/02/15 10:02:35;;;;;;;7.20;4.40;;;6.30;99.90;;;;;;494018;241;28841;-75
2022/02/15 10:04:34;;;;;;;5.07;4.50;;;6.20;99.90;;;;;;493571;241;28309;-76
2022/02/15 10:06:40;;;;;;;8.30;4.23;;;6.10;99.90;;;;;;494056;241;27614;-73
2022/02/15 10:08:40;;;;;;;4.00;3.70;;;6.20;99.90;;;;;;493839;241;29254;-75
2022/02/15 10:10:41;;;;;;;4.37;4.00;;;6.20;99.90;;;;;;494023;241;29253;-74
2022/02/15 10:12:42;;;;;;;4.67;4.20;;;6.20;99.90;;;;;;494057;241;27490;-79
2022/02/15 10:14:43;;;;;;;5.40;3.83;;;6.40;99.90;;;;;;494061;241;28790;-77
2022/02/15 10:16:45;;;;;;;4.57;3.67;;;6.60;99.90;;;;;;494015;241;27826;-74
2022/02/15 10:18:46;;;;;;;4.20;3.87;;;6.60;99.90;;;;;;494040;241;27973;-75
2022/02/15 10:20:47;;;;;;;4.43;4.00;;;6.60;99.90;;;;;;494048;241;27932;-74
2022/02/15 10:22:48;;;;;;;3.83;3.50;;;6.90;99.90;;;;;;494060;241;27873;-77
2022/02/15 10:24:50;;;;;;;5.60;3.20;;;6.90;99.90;;;;;;494057;241;28142;-78
2022/02/15 10:26:51;;;;;;;3.17;2.97;;;6.90;99.90;;;;;;494027;241;28017;-78
2022/02/15 10:28:52;;;;;;;3.43;3.13;;;6.90;99.90;;;;;;493940;241;27979;-79
2022/02/15 10:30:53;;;;;;;3.40;3.10;;;6.90;99.90;;;;;;494022;241;28415;-77
2022/02/15 10:32:55;;;;;;;5.33;3.40;;;6.60;99.90;;;;;;494054;241;28416;-78
2022/02/15 10:34:59;;;;;;;4.83;3.00;;;6.60;99.90;;;;;;494046;241;28559;-78
2022/02/15 10:37:00;;;;;;;3.33;2.37;;;6.50;99.90;;;;;;494077;241;28455;-76
2022/02/15 10:39:01;;;;;;;2.83;2.63;;;6.50;99.90;;;;;;494011;241;28160;-73
2022/02/15 10:41:03;;;;;;;3.07;2.73;;;6.70;99.90;;;;;;493432;241;28805;-79
2022/02/15 10:43:04;;;;;;;2.83;2.63;;;6.80;99.90;;;;;;491772;241;28487;-78
2022/02/15 10:45:05;;;;;;;2.70;2.50;;;6.80;99.90;;;;;;491814;242;27892;-71
2022/02/15 10:47:06;;;;;;;2.80;2.60;;;6.80;99.90;;;;;;491755;242;27709;-73
2022/02/15 10:49:08;;;;;;;2.37;2.27;;;6.80;99.90;;;;;;491713;242;28414;-77
2022/02/15 10:51:09;;;;;;;2.40;2.20;;;6.90;99.90;;;;;;491735;242;28256;-75
2022/02/15 10:53:10;;;;;;;3.03;2.80;;;7.00;99.90;;;;;;491673;242;28407;-74
2022/02/15 10:55:14;;;;;;;2.70;2.50;;;7.00;99.90;;;;;;491705;242;27881;-75
2022/02/15 10:57:15;;;;;;;2.83;2.50;;;7.00;99.90;;;;;;491762;242;28351;-74
2022/02/15 10:59:17;;;;;;;2.87;2.67;;;7.00;99.90;;;;;;491669;242;28529;-74
2022/02/15 11:01:18;;;;;;;3.63;2.60;;;7.00;99.90;;;;;;491763;242;28471;-73